Efa — YJWE9 — position and weather

sailwx.info

Track history (hours):
 
Tides and Currents Weather Stations Pressure Air Temp Water Temp Dewpoint Dewpoint Depression Visibility Wind Speed Wind Dir Waves Ship Positions

Efa

Last reported at 2017-Dec-11 12:33 UTC. Time now 2017-Dec-14 06:28 UTC.
Position N 44°44' E 029°34'.

Length 114 m; draft 3.6 m.

Type: Cargo ship. MMSI: 577373000.

Date/timePositionNaut miles runAvg speedWind from/ knotsBaromVisibWave heightAir tempDewpointWater temp
2017-Dec-11 12:33N 44°44' E 029°34'2 9.4
2017-Dec-11 12:24N 44°43' E 029°32'4 9.1
2017-Dec-11 12:00N 44°40' E 029°29'5 9.0
2017-Dec-11 11:30N 44°37' E 029°25'5 9.1
2017-Dec-11 10:56N 44°33' E 029°20'4 9.0
2017-Dec-11 10:30N 44°30' E 029°17'5 9.1
2017-Dec-11 10:00N 44°26' E 029°13'5 9.2
2017-Dec-11 09:30N 44°22' E 029°11'5 9.3
2017-Dec-11 09:00N 44°17' E 029°08'5 9.4
2017-Dec-11 08:30N 44°13' E 029°05'5 9.5
2017-Dec-11 08:00N 44°09' E 029°02'5 9.5
2017-Dec-11 07:30N 44°05' E 028°59'5 9.6
2017-Dec-11 07:00N 44°00' E 028°57'5 9.9
2017-Dec-11 06:30N 43°56' E 028°53'510.1
2017-Dec-11 06:00N 43°51' E 028°50'510.2
2017-Dec-11 05:30N 43°47' E 028°47'510.4
2017-Dec-11 05:00N 43°42' E 028°44'510.5
2017-Dec-11 04:30N 43°37' E 028°42'510.0
2017-Dec-11 04:00N 43°32' E 028°40'  
2017-Dec-04 03:32N 43°38' E 028°46'0 8.5
2017-Dec-04 03:30N 43°39' E 028°46'4 8.4
2017-Dec-04 03:00N 43°43' E 028°47'4 8.3
2017-Dec-04 02:30N 43°47' E 028°48'4 8.4
2017-Dec-04 02:01N 43°51' E 028°49'4 8.5
2017-Dec-04 01:31N 43°55' E 028°49'4 8.7
2017-Dec-04 01:01N 43°59' E 028°50'4 8.8
2017-Dec-04 00:31N 44°04' E 028°52'4 8.6
2017-Dec-04 00:01N 44°08' E 028°53'4 8.5
2017-Dec-03 23:31N 44°12' E 028°55'4 8.2
2017-Dec-03 23:00N 44°15' E 028°58'4 8.1
2017-Dec-03 22:31N 44°19' E 029°01'4 7.9
2017-Dec-03 22:01N 44°22' E 029°05'4 7.9
2017-Dec-03 21:30N 44°25' E 029°08'4 7.9
2017-Dec-03 21:00N 44°28' E 029°11'4 7.9
2017-Dec-03 20:30N 44°31' E 029°14'14 8.0
2017-Dec-03 18:48N 44°41' E 029°28'3 8.9
2017-Dec-03 18:27N 44°43' E 029°31'  
Track history (hours):
 
Tides and Currents Weather Stations Pressure Air Temp Water Temp Dewpoint Dewpoint Depression Visibility Wind Speed Wind Dir Waves Ship Positions

Efa

Last reported at 2017-Dec-11 12:33 UTC. Time now 2017-Dec-14 06:28 UTC.
Position N 44°44' E 029°34'.

Length 114 m; draft 3.6 m.

Type: Cargo ship. MMSI: 577373000.

Date/timePositionNaut miles runAvg speedWind from/ knotsBaromVisibWave heightAir tempDewpointWater temp
2017-Dec-11 12:33N 44°44' E 029°34'2 9.4
2017-Dec-11 12:24N 44°43' E 029°32'4 9.1
2017-Dec-11 12:00N 44°40' E 029°29'5 9.0
2017-Dec-11 11:30N 44°37' E 029°25'5 9.1
2017-Dec-11 10:56N 44°33' E 029°20'4 9.0
2017-Dec-11 10:30N 44°30' E 029°17'5 9.1
2017-Dec-11 10:00N 44°26' E 029°13'5 9.2
2017-Dec-11 09:30N 44°22' E 029°11'5 9.3
2017-Dec-11 09:00N 44°17' E 029°08'5 9.4
2017-Dec-11 08:30N 44°13' E 029°05'5 9.5
2017-Dec-11 08:00N 44°09' E 029°02'5 9.5
2017-Dec-11 07:30N 44°05' E 028°59'5 9.6
2017-Dec-11 07:00N 44°00' E 028°57'5 9.9
2017-Dec-11 06:30N 43°56' E 028°53'510.1
2017-Dec-11 06:00N 43°51' E 028°50'510.2
2017-Dec-11 05:30N 43°47' E 028°47'510.4
2017-Dec-11 05:00N 43°42' E 028°44'510.5
2017-Dec-11 04:30N 43°37' E 028°42'510.0
2017-Dec-11 04:00N 43°32' E 028°40'  
2017-Dec-04 03:32N 43°38' E 028°46'0 8.5
2017-Dec-04 03:30N 43°39' E 028°46'4 8.4
2017-Dec-04 03:00N 43°43' E 028°47'4 8.3
2017-Dec-04 02:30N 43°47' E 028°48'4 8.4
2017-Dec-04 02:01N 43°51' E 028°49'4 8.5
2017-Dec-04 01:31N 43°55' E 028°49'4 8.7
2017-Dec-04 01:01N 43°59' E 028°50'4 8.8
2017-Dec-04 00:31N 44°04' E 028°52'4 8.6
2017-Dec-04 00:01N 44°08' E 028°53'4 8.5
2017-Dec-03 23:31N 44°12' E 028°55'4 8.2
2017-Dec-03 23:00N 44°15' E 028°58'4 8.1
2017-Dec-03 22:31N 44°19' E 029°01'4 7.9
2017-Dec-03 22:01N 44°22' E 029°05'4 7.9
2017-Dec-03 21:30N 44°25' E 029°08'4 7.9
2017-Dec-03 21:00N 44°28' E 029°11'4 7.9
2017-Dec-03 20:30N 44°31' E 029°14'14 8.0
2017-Dec-03 18:48N 44°41' E 029°28'3 8.9
2017-Dec-03 18:27N 44°43' E 029°31'  

Dump ship's entire track history